1997 LINDSAY (1996190S07096)


On this page: IBTrACS data - Map and Plots - Positions - Intensities - Original source data

Summary

Start Jul 8
End Jul 13
Basin SI
LMI 41 kt
Sources jtwc_sh
bom
neumann
In WMO? Yes
Previous storm 1996 MISSING (EP)
Previous in basin 1996 JENNA (SI)
Concurrent storms 1996 DAN (WP)
1996 BERTHA (NA)
1997 LINDSAY (SI)
1996 EVE (WP)
Next in basin Missing
Next storm 1996 EVE (WP)

top of page IBTrACS Data: File Access

Image of storm

top of page Plots:

Map of storm track will not appear if FTP is down
Time series of cyclone Maximum Sustained Wind will not appear if FTP is down
Time series of cyclone Minimum Central Pressure will not appear if FTP is down

top of page Track Data:Position

jtwc_sh bom neumann
Date Lat Lon Lat Lon Lat Lon
1996-07-08 06:00:00 -7.0 95.5 -7.0 95.5
1996-07-08 12:00:00 -7.5 94.9 -7.5 94.9
1996-07-08 18:00:00 -8.1 94.3 -8.1 94.3
1996-07-09 00:00:00 -8.7 93.7 -8.7 93.7
1996-07-09 06:00:00 -9.4 93.1 -9.4 93.1
1996-07-09 12:00:00 -9.9 92.6 -9.7 93.0 -9.9 92.6
1996-07-09 18:00:00 -10.3 92.3 -10.3 92.6 -10.3 92.3
1996-07-10 00:00:00 -10.7 92.1 -11.1 92.4 -10.7 92.1
1996-07-10 06:00:00 -11.1 91.9 -11.7 92.2 -11.1 91.9
1996-07-10 12:00:00 -11.5 91.9 -12.2 92.0 -11.5 91.9
1996-07-10 18:00:00 -11.8 92.1 -12.3 92.0 -11.8 92.1
1996-07-11 00:00:00 -12.3 92.4 -12.3 92.0 -12.3 92.4
1996-07-11 06:00:00 -12.7 92.7 -12.4 92.2 -12.7 92.7
1996-07-11 12:00:00 -13.0 93.1 -12.5 92.4 -13.0 93.1
1996-07-11 18:00:00 -13.3 93.4 -12.6 92.6 -13.3 93.4
1996-07-12 00:00:00 -13.6 93.7 -12.9 92.9 -13.6 93.7
1996-07-12 06:00:00 -13.8 93.9 -13.5 93.5 -13.8 93.9
1996-07-12 12:00:00 -14.1 94.2 -14.1 94.1 -14.1 94.2
1996-07-12 18:00:00 -14.4 94.4 -14.7 94.7 -14.4 94.4
1996-07-13 00:00:00 -15.0 94.8 -15.3 95.3 -15.0 94.8
1996-07-13 06:00:00 -15.6 95.3 -15.6 95.3

top of pageTrack Data:Intensity

jtwc_sh bom neumann
Date Wind Pres Wind Pres Wind Pres
1996-07-08 06:00:00 15. 15.
1996-07-08 12:00:00 15. 15.
1996-07-08 18:00:00 20. 20.
1996-07-09 00:00:00 25. 25.
1996-07-09 06:00:00 25. 25.
1996-07-09 12:00:00 25. 21. 1004. 25.
1996-07-09 18:00:00 25. 23. 1002. 25.
1996-07-10 00:00:00 25. 27. 1000. 25.
1996-07-10 06:00:00 30. 29. 998. 30.
1996-07-10 12:00:00 30. 41. 990. 30.
1996-07-10 18:00:00 35. 41. 990. 35.
1996-07-11 00:00:00 35. 41. 990. 35.
1996-07-11 06:00:00 30. 35. 994. 30.
1996-07-11 12:00:00 30. 29. 998. 30.
1996-07-11 18:00:00 30. 29. 998. 30.
1996-07-12 00:00:00 30. 29. 998. 30.
1996-07-12 06:00:00 25. 29. 998. 25.
1996-07-12 12:00:00 25. 29. 998. 25.
1996-07-12 18:00:00 25. 29. 998. 25.
1996-07-13 00:00:00 25. 27. 1000. 25.
1996-07-13 06:00:00 25. 25.

top of page Links to source data

Source Source file Format
jtwc_sh bsh011997.txt ATCF
bom IDCKMSTM0S.csv:Line=18605:LINDSAY CSV file (from Excel file)
neumann tracks.sh:Storm=1065:LINDSAY:BSH011997:JTWC&BM851 HURDAT